sensor_id;sensor_type;location;lat;lon;timestamp;temperature;humidity
43561;DHT22;32305;46.410;17.394;2022-10-23T00:01:33;23.10;45.30
43561;DHT22;32305;46.410;17.394;2022-10-23T00:04:04;23.10;45.30
43561;DHT22;32305;46.410;17.394;2022-10-23T00:06:33;23.10;45.30
43561;DHT22;32305;46.410;17.394;2022-10-23T00:09:03;23.10;45.30
43561;DHT22;32305;46.410;17.394;2022-10-23T00:11:31;23.10;45.30
43561;DHT22;32305;46.410;17.394;2022-10-23T00:14:00;23.20;45.30
43561;DHT22;32305;46.410;17.394;2022-10-23T00:16:28;23.10;45.20
43561;DHT22;32305;46.410;17.394;2022-10-23T00:18:56;23.10;45.20
43561;DHT22;32305;46.410;17.394;2022-10-23T00:21:23;23.20;45.30
43561;DHT22;32305;46.410;17.394;2022-10-23T00:23:51;23.20;45.30
43561;DHT22;32305;46.410;17.394;2022-10-23T00:26:18;23.20;45.30
43561;DHT22;32305;46.410;17.394;2022-10-23T00:28:49;23.10;45.30
43561;DHT22;32305;46.410;17.394;2022-10-23T00:31:17;23.10;45.30
43561;DHT22;32305;46.410;17.394;2022-10-23T00:33:44;23.10;45.30
43561;DHT22;32305;46.410;17.394;2022-10-23T00:36:13;23.20;45.30
43561;DHT22;32305;46.410;17.394;2022-10-23T00:38:41;23.10;45.20
43561;DHT22;32305;46.410;17.394;2022-10-23T00:41:10;23.10;45.30
43561;DHT22;32305;46.410;17.394;2022-10-23T00:44:09;23.20;45.30
43561;DHT22;32305;46.410;17.394;2022-10-23T00:46:37;23.10;45.30
43561;DHT22;32305;46.410;17.394;2022-10-23T00:49:05;23.20;45.30
43561;DHT22;32305;46.410;17.394;2022-10-23T00:51:40;23.10;45.30
43561;DHT22;32305;46.410;17.394;2022-10-23T00:54:11;23.20;45.30
43561;DHT22;32305;46.410;17.394;2022-10-23T00:57:00;23.20;45.30
43561;DHT22;32305;46.410;17.394;2022-10-23T00:59:29;23.10;45.30
43561;DHT22;32305;46.410;17.394;2022-10-23T01:01:58;23.10;45.30
43561;DHT22;32305;46.410;17.394;2022-10-23T01:04:26;23.10;45.30
43561;DHT22;32305;46.410;17.394;2022-10-23T01:10:14;23.10;45.30
43561;DHT22;32305;46.410;17.394;2022-10-23T01:12:50;23.20;45.40
43561;DHT22;32305;46.410;17.394;2022-10-23T01:15:28;23.20;45.40
43561;DHT22;32305;46.410;17.394;2022-10-23T01:18:20;23.20;45.40
43561;DHT22;32305;46.410;17.394;2022-10-23T01:21:00;23.10;45.40
43561;DHT22;32305;46.410;17.394;2022-10-23T01:23:52;23.20;45.40
43561;DHT22;32305;46.410;17.394;2022-10-23T01:27:09;23.10;45.40
43561;DHT22;32305;46.410;17.394;2022-10-23T01:29:34;23.10;45.40
43561;DHT22;32305;46.410;17.394;2022-10-23T01:32:11;23.10;45.50
43561;DHT22;32305;46.410;17.394;2022-10-23T01:34:48;23.10;45.50
43561;DHT22;32305;46.410;17.394;2022-10-23T01:37:22;23.10;45.50
43561;DHT22;32305;46.410;17.394;2022-10-23T01:39:53;23.20;45.50
43561;DHT22;32305;46.410;17.394;2022-10-23T01:42:26;23.10;45.50
43561;DHT22;32305;46.410;17.394;2022-10-23T01:45:05;23.10;45.40
43561;DHT22;32305;46.410;17.394;2022-10-23T01:47:35;23.10;45.50
43561;DHT22;32305;46.410;17.394;2022-10-23T01:50:05;23.20;45.50
43561;DHT22;32305;46.410;17.394;2022-10-23T01:52:33;23.10;45.50
43561;DHT22;32305;46.410;17.394;2022-10-23T01:55:00;23.10;45.40
43561;DHT22;32305;46.410;17.394;2022-10-23T01:57:29;23.10;45.40
43561;DHT22;32305;46.410;17.394;2022-10-23T02:00:08;23.10;45.40
43561;DHT22;32305;46.410;17.394;2022-10-23T02:02:36;23.10;45.40
43561;DHT22;32305;46.410;17.394;2022-10-23T02:05:20;23.10;45.40
43561;DHT22;32305;46.410;17.394;2022-10-23T02:07:49;23.20;45.50
43561;DHT22;32305;46.410;17.394;2022-10-23T02:10:17;23.10;45.40
43561;DHT22;32305;46.410;17.394;2022-10-23T02:12:57;23.10;45.40
43561;DHT22;32305;46.410;17.394;2022-10-23T02:15:32;23.10;45.40
43561;DHT22;32305;46.410;17.394;2022-10-23T02:21:08;23.10;45.50
43561;DHT22;32305;46.410;17.394;2022-10-23T02:23:51;23.10;45.50
43561;DHT22;32305;46.410;17.394;2022-10-23T02:26:33;23.10;45.40
43561;DHT22;32305;46.410;17.394;2022-10-23T02:29:06;23.10;45.50
43561;DHT22;32305;46.410;17.394;2022-10-23T02:31:33;23.10;45.50
43561;DHT22;32305;46.410;17.394;2022-10-23T02:34:00;23.10;45.50
43561;DHT22;32305;46.410;17.394;2022-10-23T02:36:28;23.10;45.50
43561;DHT22;32305;46.410;17.394;2022-10-23T02:38:55;23.10;45.50
43561;DHT22;32305;46.410;17.394;2022-10-23T02:41:50;23.10;45.50
43561;DHT22;32305;46.410;17.394;2022-10-23T02:44:42;23.10;45.50
43561;DHT22;32305;46.410;17.394;2022-10-23T02:47:31;23.10;45.60
43561;DHT22;32305;46.410;17.394;2022-10-23T02:50:20;23.10;45.60
43561;DHT22;32305;46.410;17.394;2022-10-23T02:53:06;23.10;45.60
43561;DHT22;32305;46.410;17.394;2022-10-23T02:56:07;23.10;45.60
43561;DHT22;32305;46.410;17.394;2022-10-23T02:58:47;23.10;45.60
43561;DHT22;32305;46.410;17.394;2022-10-23T03:01:26;23.10;45.70
43561;DHT22;32305;46.410;17.394;2022-10-23T03:03:56;23.10;45.70
43561;DHT22;32305;46.410;17.394;2022-10-23T03:06:25;23.10;45.70
43561;DHT22;32305;46.410;17.394;2022-10-23T03:08:58;23.10;45.70
43561;DHT22;32305;46.410;17.394;2022-10-23T03:11:26;23.10;45.70
43561;DHT22;32305;46.410;17.394;2022-10-23T03:13:53;23.10;45.60
43561;DHT22;32305;46.410;17.394;2022-10-23T03:16:20;23.10;45.60
43561;DHT22;32305;46.410;17.394;2022-10-23T03:18:47;23.10;45.60
43561;DHT22;32305;46.410;17.394;2022-10-23T03:21:14;23.20;45.70
43561;DHT22;32305;46.410;17.394;2022-10-23T03:23:41;23.10;45.60
43561;DHT22;32305;46.410;17.394;2022-10-23T03:26:08;23.10;45.60
43561;DHT22;32305;46.410;17.394;2022-10-23T03:28:35;23.10;45.60
43561;DHT22;32305;46.410;17.394;2022-10-23T03:31:02;23.10;45.60
43561;DHT22;32305;46.410;17.394;2022-10-23T03:33:30;23.10;45.60
43561;DHT22;32305;46.410;17.394;2022-10-23T03:35:57;23.10;45.60
43561;DHT22;32305;46.410;17.394;2022-10-23T03:38:24;23.10;45.60
43561;DHT22;32305;46.410;17.394;2022-10-23T03:40:51;23.10;45.60
43561;DHT22;32305;46.410;17.394;2022-10-23T03:43:18;23.10;45.70
43561;DHT22;32305;46.410;17.394;2022-10-23T03:45:45;23.10;45.60
43561;DHT22;32305;46.410;17.394;2022-10-23T03:48:12;23.10;45.70
43561;DHT22;32305;46.410;17.394;2022-10-23T03:50:40;23.10;45.60
43561;DHT22;32305;46.410;17.394;2022-10-23T03:53:07;23.10;45.70
43561;DHT22;32305;46.410;17.394;2022-10-23T03:55:34;23.10;45.70
43561;DHT22;32305;46.410;17.394;2022-10-23T03:58:01;23.10;45.70
43561;DHT22;32305;46.410;17.394;2022-10-23T04:00:28;23.10;45.70
43561;DHT22;32305;46.410;17.394;2022-10-23T04:02:56;23.10;45.70
43561;DHT22;32305;46.410;17.394;2022-10-23T04:05:23;23.10;45.70
43561;DHT22;32305;46.410;17.394;2022-10-23T04:07:50;23.10;45.70
43561;DHT22;32305;46.410;17.394;2022-10-23T04:10:17;23.10;45.70
43561;DHT22;32305;46.410;17.394;2022-10-23T04:12:44;23.10;45.70
43561;DHT22;32305;46.410;17.394;2022-10-23T04:15:11;23.10;45.70
43561;DHT22;32305;46.410;17.394;2022-10-23T04:17:38;23.10;45.70
43561;DHT22;32305;46.410;17.394;2022-10-23T04:20:06;23.10;45.80
43561;DHT22;32305;46.410;17.394;2022-10-23T04:22:33;23.10;45.80
43561;DHT22;32305;46.410;17.394;2022-10-23T04:25:00;23.10;45.80
43561;DHT22;32305;46.410;17.394;2022-10-23T04:27:27;23.10;45.80
43561;DHT22;32305;46.410;17.394;2022-10-23T04:29:54;23.10;45.80
43561;DHT22;32305;46.410;17.394;2022-10-23T04:32:25;23.10;45.90
43561;DHT22;32305;46.410;17.394;2022-10-23T04:34:52;23.10;45.90
43561;DHT22;32305;46.410;17.394;2022-10-23T04:37:19;23.00;45.80
43561;DHT22;32305;46.410;17.394;2022-10-23T04:39:46;23.10;45.90
43561;DHT22;32305;46.410;17.394;2022-10-23T04:42:14;23.10;46.00
43561;DHT22;32305;46.410;17.394;2022-10-23T04:44:41;23.10;46.00
43561;DHT22;32305;46.410;17.394;2022-10-23T04:47:08;23.10;46.00
43561;DHT22;32305;46.410;17.394;2022-10-23T04:49:35;23.10;46.10
43561;DHT22;32305;46.410;17.394;2022-10-23T04:52:02;23.10;46.10
43561;DHT22;32305;46.410;17.394;2022-10-23T04:54:35;23.10;46.10
43561;DHT22;32305;46.410;17.394;2022-10-23T04:57:02;23.10;46.10
43561;DHT22;32305;46.410;17.394;2022-10-23T04:59:30;23.10;46.10
43561;DHT22;32305;46.410;17.394;2022-10-23T05:01:57;23.10;46.10
43561;DHT22;32305;46.410;17.394;2022-10-23T05:04:24;23.20;46.10
43561;DHT22;32305;46.410;17.394;2022-10-23T05:06:51;23.20;46.10
43561;DHT22;32305;46.410;17.394;2022-10-23T05:09:18;23.10;46.10
43561;DHT22;32305;46.410;17.394;2022-10-23T05:11:45;23.10;46.10
43561;DHT22;32305;46.410;17.394;2022-10-23T05:14:12;23.10;46.20
43561;DHT22;32305;46.410;17.394;2022-10-23T05:16:49;23.10;46.20
43561;DHT22;32305;46.410;17.394;2022-10-23T05:19:21;23.10;46.30
43561;DHT22;32305;46.410;17.394;2022-10-23T05:21:50;23.10;46.30
43561;DHT22;32305;46.410;17.394;2022-10-23T05:24:22;23.00;46.30
43561;DHT22;32305;46.410;17.394;2022-10-23T05:26:50;23.00;46.30
43561;DHT22;32305;46.410;17.394;2022-10-23T05:29:19;23.00;46.40
43561;DHT22;32305;46.410;17.394;2022-10-23T05:31:47;23.00;46.40
43561;DHT22;32305;46.410;17.394;2022-10-23T05:34:18;23.00;46.50
43561;DHT22;32305;46.410;17.394;2022-10-23T05:36:46;23.00;46.50
43561;DHT22;32305;46.410;17.394;2022-10-23T05:39:13;23.00;46.50
43561;DHT22;32305;46.410;17.394;2022-10-23T05:41:41;23.00;46.60
43561;DHT22;32305;46.410;17.394;2022-10-23T05:44:08;23.00;46.60
43561;DHT22;32305;46.410;17.394;2022-10-23T05:46:40;23.00;46.60
43561;DHT22;32305;46.410;17.394;2022-10-23T05:49:08;23.00;46.60
43561;DHT22;32305;46.410;17.394;2022-10-23T05:51:36;23.00;46.60
43561;DHT22;32305;46.410;17.394;2022-10-23T05:54:04;23.00;46.60
43561;DHT22;32305;46.410;17.394;2022-10-23T05:56:36;23.00;46.60
43561;DHT22;32305;46.410;17.394;2022-10-23T05:59:04;23.00;46.60
43561;DHT22;32305;46.410;17.394;2022-10-23T06:01:36;23.00;46.60
43561;DHT22;32305;46.410;17.394;2022-10-23T06:04:04;23.00;46.60
43561;DHT22;32305;46.410;17.394;2022-10-23T06:06:31;23.00;46.60
43561;DHT22;32305;46.410;17.394;2022-10-23T06:08:58;23.00;46.60
43561;DHT22;32305;46.410;17.394;2022-10-23T06:11:26;23.10;46.60
43561;DHT22;32305;46.410;17.394;2022-10-23T06:13:53;23.10;46.60
43561;DHT22;32305;46.410;17.394;2022-10-23T06:16:21;23.10;46.60
43561;DHT22;32305;46.410;17.394;2022-10-23T06:18:50;23.10;46.60
43561;DHT22;32305;46.410;17.394;2022-10-23T06:21:17;23.10;46.60
43561;DHT22;32305;46.410;17.394;2022-10-23T06:23:45;23.10;46.60
43561;DHT22;32305;46.410;17.394;2022-10-23T06:26:15;23.10;46.60
43561;DHT22;32305;46.410;17.394;2022-10-23T06:28:42;23.10;46.60
43561;DHT22;32305;46.410;17.394;2022-10-23T06:31:14;23.10;46.50
43561;DHT22;32305;46.410;17.394;2022-10-23T06:33:42;23.10;47.00
43561;DHT22;32305;46.410;17.394;2022-10-23T06:36:09;23.20;46.50
43561;DHT22;32305;46.410;17.394;2022-10-23T06:38:37;23.20;46.50
43561;DHT22;32305;46.410;17.394;2022-10-23T06:41:12;23.20;46.40
43561;DHT22;32305;46.410;17.394;2022-10-23T06:43:39;23.20;46.30
43561;DHT22;32305;46.410;17.394;2022-10-23T06:46:07;23.30;46.30
43561;DHT22;32305;46.410;17.394;2022-10-23T06:48:34;23.30;46.30
43561;DHT22;32305;46.410;17.394;2022-10-23T06:51:06;23.30;46.20
43561;DHT22;32305;46.410;17.394;2022-10-23T06:53:34;23.30;46.20
43561;DHT22;32305;46.410;17.394;2022-10-23T06:56:03;23.30;46.10
43561;DHT22;32305;46.410;17.394;2022-10-23T06:58:30;23.30;46.10
43561;DHT22;32305;46.410;17.394;2022-10-23T07:01:06;23.30;46.10
43561;DHT22;32305;46.410;17.394;2022-10-23T07:03:34;23.40;46.10
43561;DHT22;32305;46.410;17.394;2022-10-23T07:06:03;23.40;46.10
43561;DHT22;32305;46.410;17.394;2022-10-23T07:08:31;23.40;46.10
43561;DHT22;32305;46.410;17.394;2022-10-23T07:11:05;23.40;46.10
43561;DHT22;32305;46.410;17.394;2022-10-23T07:13:33;23.40;46.00
43561;DHT22;32305;46.410;17.394;2022-10-23T07:16:15;23.50;46.00
43561;DHT22;32305;46.410;17.394;2022-10-23T07:18:44;23.50;46.00
43561;DHT22;32305;46.410;17.394;2022-10-23T07:21:11;23.50;46.00
43561;DHT22;32305;46.410;17.394;2022-10-23T07:23:39;23.50;46.00
43561;DHT22;32305;46.410;17.394;2022-10-23T07:26:12;23.60;46.00
43561;DHT22;32305;46.410;17.394;2022-10-23T07:28:42;23.60;46.10
43561;DHT22;32305;46.410;17.394;2022-10-23T07:31:10;23.60;46.00
43561;DHT22;32305;46.410;17.394;2022-10-23T07:33:37;23.60;46.00
43561;DHT22;32305;46.410;17.394;2022-10-23T07:36:05;23.70;46.10
43561;DHT22;32305;46.410;17.394;2022-10-23T07:38:33;23.70;46.10
43561;DHT22;32305;46.410;17.394;2022-10-23T07:41:01;23.70;46.10
43561;DHT22;32305;46.410;17.394;2022-10-23T07:43:28;23.70;46.10
43561;DHT22;32305;46.410;17.394;2022-10-23T07:45:55;23.70;46.10
43561;DHT22;32305;46.410;17.394;2022-10-23T07:48:23;23.70;46.10
43561;DHT22;32305;46.410;17.394;2022-10-23T07:50:50;23.80;46.10
43561;DHT22;32305;46.410;17.394;2022-10-23T07:53:21;23.80;46.10
43561;DHT22;32305;46.410;17.394;2022-10-23T07:55:56;23.80;46.10
43561;DHT22;32305;46.410;17.394;2022-10-23T07:58:24;23.80;46.10
43561;DHT22;32305;46.410;17.394;2022-10-23T08:01:00;23.80;46.10
43561;DHT22;32305;46.410;17.394;2022-10-23T08:03:30;23.90;46.10
43561;DHT22;32305;46.410;17.394;2022-10-23T08:05:58;23.90;46.00
43561;DHT22;32305;46.410;17.394;2022-10-23T08:08:26;23.90;46.00
43561;DHT22;32305;46.410;17.394;2022-10-23T08:10:54;24.00;46.00
43561;DHT22;32305;46.410;17.394;2022-10-23T08:13:21;24.00;46.00
43561;DHT22;32305;46.410;17.394;2022-10-23T08:15:50;24.00;46.00
43561;DHT22;32305;46.410;17.394;2022-10-23T08:18:17;24.00;46.00
43561;DHT22;32305;46.410;17.394;2022-10-23T08:20:46;24.10;46.10
43561;DHT22;32305;46.410;17.394;2022-10-23T08:23:15;24.00;46.10
43561;DHT22;32305;46.410;17.394;2022-10-23T08:25:45;24.10;46.20
43561;DHT22;32305;46.410;17.394;2022-10-23T08:28:12;24.10;46.20
43561;DHT22;32305;46.410;17.394;2022-10-23T08:30:39;24.10;46.20
43561;DHT22;32305;46.410;17.394;2022-10-23T08:33:06;24.10;46.20
43561;DHT22;32305;46.410;17.394;2022-10-23T08:35:37;24.10;46.20
43561;DHT22;32305;46.410;17.394;2022-10-23T08:38:05;24.10;46.30
43561;DHT22;32305;46.410;17.394;2022-10-23T08:40:33;24.10;46.30
43561;DHT22;32305;46.410;17.394;2022-10-23T08:43:32;24.10;46.40
43561;DHT22;32305;46.410;17.394;2022-10-23T08:46:10;24.20;46.50
43561;DHT22;32305;46.410;17.394;2022-10-23T08:48:47;24.20;46.50
43561;DHT22;32305;46.410;17.394;2022-10-23T08:51:23;24.20;46.50
43561;DHT22;32305;46.410;17.394;2022-10-23T08:53:59;24.30;46.60
43561;DHT22;32305;46.410;17.394;2022-10-23T08:56:37;24.20;46.50
43561;DHT22;32305;46.410;17.394;2022-10-23T08:59:27;24.30;46.60
43561;DHT22;32305;46.410;17.394;2022-10-23T09:02:16;24.30;46.60
43561;DHT22;32305;46.410;17.394;2022-10-23T09:04:47;24.30;47.20
43561;DHT22;32305;46.410;17.394;2022-10-23T09:07:31;24.30;46.60
43561;DHT22;32305;46.410;17.394;2022-10-23T09:10:33;24.30;46.60
43561;DHT22;32305;46.410;17.394;2022-10-23T09:13:27;24.30;46.70
43561;DHT22;32305;46.410;17.394;2022-10-23T09:16:19;24.30;46.70
43561;DHT22;32305;46.410;17.394;2022-10-23T09:18:51;24.30;46.70
43561;DHT22;32305;46.410;17.394;2022-10-23T09:21:19;24.30;46.70
43561;DHT22;32305;46.410;17.394;2022-10-23T09:23:47;24.30;46.80
43561;DHT22;32305;46.410;17.394;2022-10-23T09:26:16;24.40;46.80
43561;DHT22;32305;46.410;17.394;2022-10-23T09:28:50;24.40;46.90
43561;DHT22;32305;46.410;17.394;2022-10-23T09:31:18;24.40;46.90
43561;DHT22;32305;46.410;17.394;2022-10-23T09:33:57;24.40;46.90
43561;DHT22;32305;46.410;17.394;2022-10-23T09:36:27;24.40;46.90
43561;DHT22;32305;46.410;17.394;2022-10-23T09:38:59;24.40;46.90
43561;DHT22;32305;46.410;17.394;2022-10-23T09:41:37;24.50;46.90
43561;DHT22;32305;46.410;17.394;2022-10-23T09:44:19;24.40;46.90
43561;DHT22;32305;46.410;17.394;2022-10-23T09:46:52;24.50;46.90
43561;DHT22;32305;46.410;17.394;2022-10-23T09:49:25;24.50;46.90
43561;DHT22;32305;46.410;17.394;2022-10-23T09:54:58;24.50;46.80
43561;DHT22;32305;46.410;17.394;2022-10-23T09:57:34;24.50;46.80
43561;DHT22;32305;46.410;17.394;2022-10-23T10:00:20;24.50;46.80
43561;DHT22;32305;46.410;17.394;2022-10-23T10:03:05;24.50;46.80
43561;DHT22;32305;46.410;17.394;2022-10-23T10:05:35;24.50;46.90
43561;DHT22;32305;46.410;17.394;2022-10-23T10:11:17;24.50;47.00
43561;DHT22;32305;46.410;17.394;2022-10-23T10:16:58;24.50;47.10
43561;DHT22;32305;46.410;17.394;2022-10-23T10:20:00;24.50;47.20
43561;DHT22;32305;46.410;17.394;2022-10-23T10:22:45;24.50;47.30
43561;DHT22;32305;46.410;17.394;2022-10-23T10:31:25;24.50;47.10
43561;DHT22;32305;46.410;17.394;2022-10-23T10:34:28;24.50;47.10
43561;DHT22;32305;46.410;17.394;2022-10-23T10:36:56;24.50;47.10
43561;DHT22;32305;46.410;17.394;2022-10-23T10:39:47;24.50;47.10
43561;DHT22;32305;46.410;17.394;2022-10-23T10:42:47;24.50;47.60
43561;DHT22;32305;46.410;17.394;2022-10-23T10:45:24;24.50;47.00
43561;DHT22;32305;46.410;17.394;2022-10-23T10:48:11;24.50;47.10
43561;DHT22;32305;46.410;17.394;2022-10-23T10:51:15;24.50;47.10
43561;DHT22;32305;46.410;17.394;2022-10-23T10:54:00;24.50;47.10
43561;DHT22;32305;46.410;17.394;2022-10-23T10:56:34;24.50;47.10
43561;DHT22;32305;46.410;17.394;2022-10-23T10:59:09;24.50;47.10
43561;DHT22;32305;46.410;17.394;2022-10-23T11:01:46;24.50;47.20
43561;DHT22;32305;46.410;17.394;2022-10-23T11:04:41;24.60;47.20
43561;DHT22;32305;46.410;17.394;2022-10-23T11:07:13;24.50;47.10
43561;DHT22;32305;46.410;17.394;2022-10-23T11:09:41;24.50;47.10
43561;DHT22;32305;46.410;17.394;2022-10-23T11:12:23;24.50;47.10
43561;DHT22;32305;46.410;17.394;2022-10-23T11:14:50;24.60;47.10
43561;DHT22;32305;46.410;17.394;2022-10-23T11:17:26;24.60;47.10
43561;DHT22;32305;46.410;17.394;2022-10-23T11:20:18;24.60;47.10
43561;DHT22;32305;46.410;17.394;2022-10-23T11:23:04;24.60;47.20
43561;DHT22;32305;46.410;17.394;2022-10-23T11:26:03;24.50;47.10
43561;DHT22;32305;46.410;17.394;2022-10-23T11:32:01;24.50;47.20
43561;DHT22;32305;46.410;17.394;2022-10-23T11:37:26;24.50;47.30
43561;DHT22;32305;46.410;17.394;2022-10-23T11:40:17;24.50;47.30
43561;DHT22;32305;46.410;17.394;2022-10-23T11:42:48;24.60;47.30
43561;DHT22;32305;46.410;17.394;2022-10-23T11:45:35;24.60;47.30
43561;DHT22;32305;46.410;17.394;2022-10-23T11:50:52;24.60;47.10
43561;DHT22;32305;46.410;17.394;2022-10-23T11:53:38;24.70;47.10
43561;DHT22;32305;46.410;17.394;2022-10-23T11:56:24;24.70;47.00
43561;DHT22;32305;46.410;17.394;2022-10-23T11:58:56;24.70;47.00
43561;DHT22;32305;46.410;17.394;2022-10-23T12:01:34;24.70;46.90
43561;DHT22;32305;46.410;17.394;2022-10-23T12:04:18;24.80;46.90
43561;DHT22;32305;46.410;17.394;2022-10-23T12:06:49;24.80;46.80
43561;DHT22;32305;46.410;17.394;2022-10-23T12:09:44;24.80;46.70
43561;DHT22;32305;46.410;17.394;2022-10-23T12:12:15;24.80;46.60
43561;DHT22;32305;46.410;17.394;2022-10-23T12:14:48;24.80;46.60
43561;DHT22;32305;46.410;17.394;2022-10-23T12:17:29;24.90;46.60
43561;DHT22;32305;46.410;17.394;2022-10-23T12:20:24;24.90;46.50
43561;DHT22;32305;46.410;17.394;2022-10-23T12:23:10;24.90;46.60
43561;DHT22;32305;46.410;17.394;2022-10-23T12:26:19;24.90;46.50
43561;DHT22;32305;46.410;17.394;2022-10-23T12:29:02;24.90;46.50
43561;DHT22;32305;46.410;17.394;2022-10-23T12:32:03;24.90;46.50
43561;DHT22;32305;46.410;17.394;2022-10-23T12:35:18;24.90;46.40
43561;DHT22;32305;46.410;17.394;2022-10-23T12:38:04;24.90;46.40
43561;DHT22;32305;46.410;17.394;2022-10-23T12:40:34;24.90;46.60
43561;DHT22;32305;46.410;17.394;2022-10-23T12:43:01;24.90;46.60
43561;DHT22;32305;46.410;17.394;2022-10-23T12:45:31;24.90;46.60
43561;DHT22;32305;46.410;17.394;2022-10-23T12:48:02;24.90;46.60
43561;DHT22;32305;46.410;17.394;2022-10-23T12:50:32;24.90;46.60
43561;DHT22;32305;46.410;17.394;2022-10-23T12:53:03;24.90;46.70
43561;DHT22;32305;46.410;17.394;2022-10-23T12:55:53;24.90;46.70
43561;DHT22;32305;46.410;17.394;2022-10-23T12:58:29;24.90;46.90
43561;DHT22;32305;46.410;17.394;2022-10-23T13:01:00;24.90;46.70
43561;DHT22;32305;46.410;17.394;2022-10-23T13:03:27;24.90;46.60
43561;DHT22;32305;46.410;17.394;2022-10-23T13:05:57;24.90;46.60
43561;DHT22;32305;46.410;17.394;2022-10-23T13:08:47;24.90;46.60
43561;DHT22;32305;46.410;17.394;2022-10-23T13:11:16;24.90;47.10
43561;DHT22;32305;46.410;17.394;2022-10-23T13:13:45;24.90;46.60
43561;DHT22;32305;46.410;17.394;2022-10-23T13:16:15;24.80;46.70
43561;DHT22;32305;46.410;17.394;2022-10-23T13:18:43;24.90;46.80
43561;DHT22;32305;46.410;17.394;2022-10-23T13:21:18;24.90;46.80
43561;DHT22;32305;46.410;17.394;2022-10-23T13:23:46;24.90;46.80
43561;DHT22;32305;46.410;17.394;2022-10-23T13:26:29;24.90;46.90
43561;DHT22;32305;46.410;17.394;2022-10-23T13:28:58;24.90;46.90
43561;DHT22;32305;46.410;17.394;2022-10-23T13:31:32;24.90;47.00
43561;DHT22;32305;46.410;17.394;2022-10-23T13:34:05;24.90;46.90
43561;DHT22;32305;46.410;17.394;2022-10-23T13:36:34;24.90;46.90
43561;DHT22;32305;46.410;17.394;2022-10-23T13:39:13;24.90;46.90
43561;DHT22;32305;46.410;17.394;2022-10-23T13:41:45;24.90;47.10
43561;DHT22;32305;46.410;17.394;2022-10-23T13:44:15;24.90;47.10
43561;DHT22;32305;46.410;17.394;2022-10-23T13:46:43;24.90;47.20
43561;DHT22;32305;46.410;17.394;2022-10-23T13:49:10;24.90;47.90
43561;DHT22;32305;46.410;17.394;2022-10-23T13:51:43;24.90;47.10
43561;DHT22;32305;46.410;17.394;2022-10-23T13:54:16;25.00;47.20
43561;DHT22;32305;46.410;17.394;2022-10-23T13:56:44;25.00;47.70
43561;DHT22;32305;46.410;17.394;2022-10-23T13:59:11;25.00;47.10
43561;DHT22;32305;46.410;17.394;2022-10-23T14:01:38;25.00;47.30
43561;DHT22;32305;46.410;17.394;2022-10-23T14:04:07;24.90;47.20
43561;DHT22;32305;46.410;17.394;2022-10-23T14:06:34;25.00;47.00
43561;DHT22;32305;46.410;17.394;2022-10-23T14:09:09;25.00;47.00
43561;DHT22;32305;46.410;17.394;2022-10-23T14:11:38;25.00;46.90
43561;DHT22;32305;46.410;17.394;2022-10-23T14:14:05;25.00;46.90
43561;DHT22;32305;46.410;17.394;2022-10-23T14:16:32;25.00;46.90
43561;DHT22;32305;46.410;17.394;2022-10-23T14:18:59;25.00;46.90
43561;DHT22;32305;46.410;17.394;2022-10-23T14:21:26;25.00;46.90
43561;DHT22;32305;46.410;17.394;2022-10-23T14:23:53;24.90;47.00
43561;DHT22;32305;46.410;17.394;2022-10-23T14:26:23;24.90;46.90
43561;DHT22;32305;46.410;17.394;2022-10-23T14:28:52;24.90;46.90
43561;DHT22;32305;46.410;17.394;2022-10-23T14:31:20;24.90;46.90
43561;DHT22;32305;46.410;17.394;2022-10-23T14:33:51;24.90;46.90
43561;DHT22;32305;46.410;17.394;2022-10-23T14:36:19;24.90;46.90
43561;DHT22;32305;46.410;17.394;2022-10-23T14:38:46;24.90;47.00
43561;DHT22;32305;46.410;17.394;2022-10-23T14:41:18;24.90;47.00
43561;DHT22;32305;46.410;17.394;2022-10-23T14:43:45;24.90;47.00
43561;DHT22;32305;46.410;17.394;2022-10-23T14:46:14;24.90;47.00
43561;DHT22;32305;46.410;17.394;2022-10-23T14:48:41;24.90;47.00
43561;DHT22;32305;46.410;17.394;2022-10-23T14:51:18;24.90;47.00
43561;DHT22;32305;46.410;17.394;2022-10-23T14:53:47;24.90;47.10
43561;DHT22;32305;46.410;17.394;2022-10-23T14:56:14;24.80;47.00
43561;DHT22;32305;46.410;17.394;2022-10-23T14:58:42;24.80;47.00
43561;DHT22;32305;46.410;17.394;2022-10-23T15:01:09;24.80;47.10
43561;DHT22;32305;46.410;17.394;2022-10-23T15:03:37;24.80;47.10
43561;DHT22;32305;46.410;17.394;2022-10-23T15:06:05;24.80;47.10
43561;DHT22;32305;46.410;17.394;2022-10-23T15:08:33;24.80;47.10
43561;DHT22;32305;46.410;17.394;2022-10-23T15:11:02;24.70;47.00
43561;DHT22;32305;46.410;17.394;2022-10-23T15:13:34;24.70;47.10
43561;DHT22;32305;46.410;17.394;2022-10-23T15:16:08;24.70;47.60
43561;DHT22;32305;46.410;17.394;2022-10-23T15:18:39;24.70;47.10
43561;DHT22;32305;46.410;17.394;2022-10-23T15:21:07;24.70;47.10
43561;DHT22;32305;46.410;17.394;2022-10-23T15:23:37;24.70;47.10
43561;DHT22;32305;46.410;17.394;2022-10-23T15:26:07;24.70;47.20
43561;DHT22;32305;46.410;17.394;2022-10-23T15:28:34;24.70;47.20
43561;DHT22;32305;46.410;17.394;2022-10-23T15:31:01;24.70;47.30
43561;DHT22;32305;46.410;17.394;2022-10-23T15:33:28;24.70;47.30
43561;DHT22;32305;46.410;17.394;2022-10-23T15:35:56;24.60;47.20
43561;DHT22;32305;46.410;17.394;2022-10-23T15:38:23;24.60;47.20
43561;DHT22;32305;46.410;17.394;2022-10-23T15:40:53;24.60;47.20
43561;DHT22;32305;46.410;17.394;2022-10-23T15:43:24;24.60;47.20
43561;DHT22;32305;46.410;17.394;2022-10-23T15:45:51;24.50;47.20
43561;DHT22;32305;46.410;17.394;2022-10-23T15:48:18;24.50;47.30
43561;DHT22;32305;46.410;17.394;2022-10-23T15:50:45;24.50;47.30
43561;DHT22;32305;46.410;17.394;2022-10-23T15:53:12;24.50;47.40
43561;DHT22;32305;46.410;17.394;2022-10-23T15:55:39;24.50;47.40
43561;DHT22;32305;46.410;17.394;2022-10-23T15:58:06;24.50;47.40
43561;DHT22;32305;46.410;17.394;2022-10-23T16:00:33;24.50;47.50
43561;DHT22;32305;46.410;17.394;2022-10-23T16:03:02;24.50;47.50
43561;DHT22;32305;46.410;17.394;2022-10-23T16:05:29;24.50;47.50
43561;DHT22;32305;46.410;17.394;2022-10-23T16:07:56;24.50;47.50
43561;DHT22;32305;46.410;17.394;2022-10-23T16:10:23;24.50;47.60
43561;DHT22;32305;46.410;17.394;2022-10-23T16:12:51;24.40;47.50
43561;DHT22;32305;46.410;17.394;2022-10-23T16:15:18;24.40;47.60
43561;DHT22;32305;46.410;17.394;2022-10-23T16:17:45;24.40;47.60
43561;DHT22;32305;46.410;17.394;2022-10-23T16:20:12;24.40;47.60